Time;durP1;ratioP1;P1;durP2;ratioP2;P2;SDS_P1;SDS_P2;PMS_P1;PMS_P2;Temp;Humidity;BMP_temperature;BMP_pressure;BME280_temperature;BME280_humidity;BME280_pressure;Samples;Min_cycle;Max_cycle;Signal;HPM_P1;HPM_P2
2022/04/02 00:04:30;;;;;;;10.03;3.67;;;;;;;-0.96;83.47;95518.97;10452177;28;20208;-52
2022/04/02 00:09:31;;;;;;;12.50;3.70;;;;;;;-0.87;81.84;95500.28;10452545;28;20184;-53
2022/04/02 00:14:31;;;;;;;15.30;4.13;;;;;;;-0.95;83.10;95518.00;10452163;28;20214;-57
2022/04/02 00:19:32;;;;;;;11.30;3.80;;;;;;;-0.97;84.12;95519.88;10451705;28;20251;-57
2022/04/02 00:24:32;;;;;;;18.60;4.37;;;;;;;-1.12;85.03;95514.13;10451323;28;20211;-54
2022/04/02 00:29:34;;;;;;;12.27;3.50;;;;;;;-1.08;82.81;95487.28;10451801;28;20218;-57
2022/04/02 00:34:34;;;;;;;17.87;3.67;;;;;;;-1.03;83.86;95500.59;10451517;28;20281;-56
2022/04/02 00:39:34;;;;;;;14.27;3.73;;;;;;;-1.05;83.22;95487.06;10450637;28;20212;-57
2022/04/02 00:44:35;;;;;;;21.60;3.50;;;;;;;-1.08;83.59;95495.00;10457177;28;20739;-56
2022/04/02 00:49:35;;;;;;;8.87;4.13;;;;;;;-1.09;82.49;95465.91;10458750;28;20222;-54
2022/04/02 00:54:39;;;;;;;15.67;3.43;;;;;;;-1.01;82.15;95467.06;10460013;28;20206;-51
2022/04/02 00:59:39;;;;;;;8.43;3.13;;;;;;;-1.17;84.61;95505.97;10457539;28;20211;-56
2022/04/02 01:04:41;;;;;;;9.50;4.57;;;;;;;-1.25;84.35;95498.81;10458303;28;20697;-54
2022/04/02 01:09:44;;;;;;;17.03;3.60;;;;;;;-1.17;84.99;95506.78;10458157;28;20188;-53
2022/04/02 01:14:45;;;;;;;9.60;3.20;;;;;;;-1.16;85.04;95505.84;10457658;28;20207;-55
2022/04/02 01:19:57;;;;;;;11.97;3.73;;;;;;;-1.35;84.51;95492.72;10458907;28;20211;-55
2022/04/02 01:25:08;;;;;;;18.03;3.73;;;;;;;-1.40;84.59;95511.03;10457070;28;20992;-53
2022/04/02 01:30:16;;;;;;;20.57;4.17;;;;;;;-1.29;83.40;95484.56;10457547;28;20184;-52
2022/04/02 01:35:19;;;;;;;13.70;3.90;;;;;;;-1.31;83.17;95482.09;10476294;23;20626;-57
2022/04/02 01:40:31;;;;;;;16.53;3.50;;;;;;;-1.22;82.77;95470.34;10440485;28;20186;-56
2022/04/02 01:45:32;;;;;;;11.73;3.77;;;;;;;-1.25;79.96;95421.75;10443839;28;20235;-59
2022/04/02 01:50:36;;;;;;;14.97;3.80;;;;;;;-1.26;76.93;95381.56;10398945;28;20192;-57
2022/04/02 01:55:37;;;;;;;6.33;3.23;;;;;;;-1.25;75.99;95380.63;10397686;28;20599;-56
2022/04/02 02:00:51;;;;;;;8.60;3.77;;;;;;;-1.37;77.18;95402.13;10416774;28;20184;-57
2022/04/02 02:05:53;;;;;;;11.10;3.03;;;;;;;-1.44;77.78;95415.44;10398472;28;20568;-55
2022/04/02 02:10:55;;;;;;;12.73;3.60;;;;;;;-1.39;77.21;95427.09;10398605;28;20185;-57
2022/04/02 02:16:14;;;;;;;18.43;3.20;;;;;;;-1.38;76.39;95411.56;10415333;28;20224;-54
2022/04/02 02:21:15;;;;;;;7.77;2.67;;;;;;;-1.51;75.07;95386.00;10398129;28;20193;-55
2022/04/02 02:26:16;;;;;;;6.97;3.10;;;;;;;-1.58;77.01;95432.78;10414649;28;20208;-57
2022/04/02 02:31:17;;;;;;;11.87;3.63;;;;;;;-1.71;78.08;95459.38;10415284;28;20193;-56
2022/04/02 02:36:18;;;;;;;6.93;2.73;;;;;;;-1.70;77.75;95462.75;10397216;28;20236;-54
2022/04/02 02:41:30;;;;;;;14.07;4.00;;;;;;;-1.74;78.05;95474.19;10397089;28;20196;-55
2022/04/02 02:46:35;;;;;;;11.67;3.90;;;;;;;-1.81;78.79;95482.34;10396915;28;20197;-55
2022/04/02 02:51:42;;;;;;;7.30;3.80;;;;;;;-1.94;78.33;95491.84;10396832;28;20279;-54
2022/04/02 02:56:46;;;;;;;7.93;3.50;;;;;;;-2.01;79.07;95499.13;10396429;28;20224;-57
2022/04/02 03:01:47;;;;;;;9.73;3.63;;;;;;;-1.92;79.89;95512.25;10413940;28;20242;-58
2022/04/02 03:06:48;;;;;;;23.90;3.90;;;;;;;-2.13;78.68;95484.63;10413642;28;20220;-57
2022/04/02 03:11:51;;;;;;;17.07;3.60;;;;;;;-2.12;78.43;95493.97;10396010;28;20212;-58
2022/04/02 03:16:53;;;;;;;5.10;3.13;;;;;;;-2.25;79.22;95496.59;10395371;28;20220;-58
2022/04/02 03:21:53;;;;;;;7.07;3.80;;;;;;;-2.33;79.72;95514.25;10395692;28;20180;-59
2022/04/02 03:26:53;;;;;;;11.13;4.20;;;;;;;-2.44;80.36;95540.63;10412669;28;20247;-58
2022/04/02 03:32:06;;;;;;;9.10;3.10;;;;;;;-2.49;79.98;95526.50;10395229;28;20185;-56
2022/04/02 03:37:07;;;;;;;5.23;2.70;;;;;;;-2.62;80.91;95547.84;10394842;28;20931;-59
2022/04/02 03:42:09;;;;;;;7.83;3.63;;;;;;;-2.62;82.25;95559.84;10412402;28;20319;-60
2022/04/02 03:47:10;;;;;;;5.93;3.07;;;;;;;-2.54;82.32;95573.78;10412117;28;20204;-60
2022/04/02 03:52:15;;;;;;;5.17;3.10;;;;;;;-2.57;82.52;95581.69;10394568;28;20189;-58
2022/04/02 03:57:18;;;;;;;7.20;3.40;;;;;;;-2.74;83.02;95593.06;10394096;28;20213;-58
2022/04/02 04:02:19;;;;;;;6.27;3.37;;;;;;;-2.74;84.17;95612.75;10394479;28;20208;-59
2022/04/02 04:07:19;;;;;;;8.77;3.70;;;;;;;-2.90;85.60;95629.13;10394056;28;20204;-60
2022/04/02 04:12:20;;;;;;;13.00;3.53;;;;;;;-3.06;86.54;95643.88;10394907;28;20546;-58
2022/04/02 04:17:24;;;;;;;7.20;3.50;;;;;;;-3.10;86.78;95639.88;10392196;28;20220;-54
2022/04/02 04:22:25;;;;;;;8.80;3.47;;;;;;;-3.11;86.83;95651.03;10393347;28;20223;-55
2022/04/02 04:27:27;;;;;;;5.63;3.20;;;;;;;-3.13;87.54;95647.75;10393384;28;20247;-54
2022/04/02 04:32:28;;;;;;;7.17;3.27;;;;;;;-3.23;87.49;95650.91;10393508;28;20616;-55
2022/04/02 04:37:28;;;;;;;10.77;2.90;;;;;;;-3.28;87.82;95662.34;10411053;28;20323;-55
2022/04/02 04:42:29;;;;;;;7.17;3.00;;;;;;;-3.42;88.21;95669.16;10393245;28;20196;-54
2022/04/02 04:47:31;;;;;;;9.77;3.50;;;;;;;-3.44;89.40;95675.31;10393475;28;20254;-57
2022/04/02 04:52:32;;;;;;;7.70;2.93;;;;;;;-3.49;90.48;95690.97;10392436;28;20196;-56
2022/04/02 04:57:35;;;;;;;8.87;3.27;;;;;;;-3.52;91.35;95690.31;10392978;28;20311;-57
2022/04/02 05:02:44;;;;;;;4.57;2.90;;;;;;;-3.53;91.27;95681.00;10392923;28;20192;-57
2022/04/02 05:07:46;;;;;;;5.27;3.47;;;;;;;-3.65;93.36;95701.31;10392918;28;20209;-55
2022/04/02 05:12:48;;;;;;;7.17;3.67;;;;;;;-3.64;94.06;95691.91;10410440;28;20235;-54
2022/04/02 05:17:49;;;;;;;8.77;2.77;;;;;;;-3.54;94.12;95702.41;10375922;28;20224;-54
2022/04/02 05:22:50;;;;;;;9.87;3.13;;;;;;;-3.49;95.21;95705.50;10376109;28;20197;-56
2022/04/02 05:27:50;;;;;;;7.47;3.13;;;;;;;-3.39;95.43;95709.13;10393097;28;20895;-55
2022/04/02 05:32:52;;;;;;;8.13;3.20;;;;;;;-3.36;96.52;95710.69;10416519;28;20679;-56
2022/04/02 05:37:52;;;;;;;6.77;3.63;;;;;;;-3.39;97.32;95711.69;10416933;28;20228;-55
2022/04/02 05:42:53;;;;;;;7.63;3.40;;;;;;;-3.27;97.74;95720.34;10416233;28;20198;-55
2022/04/02 05:47:54;;;;;;;9.03;3.47;;;;;;;-3.26;97.74;95717.69;10416123;28;20205;-56
2022/04/02 05:52:54;;;;;;;10.70;3.63;;;;;;;-3.13;97.11;95716.91;10416538;28;20189;-54
2022/04/02 05:57:55;;;;;;;6.73;3.17;;;;;;;-2.99;96.59;95714.28;10416412;28;20224;-54
2022/04/02 06:02:56;;;;;;;4.97;3.33;;;;;;;-3.07;98.25;95735.28;10416315;28;20212;-55
2022/04/02 06:07:57;;;;;;;6.83;3.70;;;;;;;-3.01;97.56;95731.50;10417072;28;20216;-53
2022/04/02 06:12:57;;;;;;;9.83;3.07;;;;;;;-3.17;97.84;95739.34;10416360;28;20227;-54
2022/04/02 06:17:57;;;;;;;9.40;3.23;;;;;;;-2.98;98.61;95746.69;10415535;28;20231;-57
2022/04/02 06:22:59;;;;;;;6.00;3.30;;;;;;;-2.90;98.35;95749.56;10415929;28;20242;-59
2022/04/02 06:27:59;;;;;;;8.73;3.60;;;;;;;-2.99;98.79;95750.16;10415877;28;20212;-56
2022/04/02 06:33:03;;;;;;;7.60;3.27;;;;;;;-2.75;98.47;95752.91;10414368;28;20200;-54
2022/04/02 06:38:03;;;;;;;13.37;2.90;;;;;;;-2.57;97.51;95748.34;10413422;28;20323;-56
2022/04/02 06:43:04;;;;;;;7.47;3.20;;;;;;;-2.50;97.05;95753.88;10414660;28;20203;-54
2022/04/02 06:48:16;;;;;;;8.40;3.40;;;;;;;-2.59;99.01;95763.00;10413922;28;20682;-54
2022/04/02 06:53:16;;;;;;;5.60;3.90;;;;;;;-2.64;98.06;95770.16;10413451;28;20271;-59
2022/04/02 06:58:26;;;;;;;5.87;3.40;;;;;;;-2.69;98.29;95761.94;10414614;28;20240;-55
2022/04/02 07:03:26;;;;;;;5.23;3.33;;;;;;;-2.32;97.71;95764.69;10407951;28;20577;-56
2022/04/02 07:08:27;;;;;;;7.83;3.40;;;;;;;-2.32;96.74;95767.25;10408639;28;20205;-56
2022/04/02 07:13:27;;;;;;;9.70;3.80;;;;;;;-2.27;96.15;95761.81;10409456;28;20223;-57
2022/04/02 07:18:27;;;;;;;8.67;3.40;;;;;;;-2.12;96.19;95771.06;10409614;28;20247;-59
2022/04/02 07:23:29;;;;;;;5.30;3.37;;;;;;;-1.84;95.62;95775.19;10411758;28;20247;-56
2022/04/02 07:28:29;;;;;;;8.03;3.20;;;;;;;-1.78;95.11;95763.66;10409318;28;20220;-58
2022/04/02 07:33:30;;;;;;;5.17;3.47;;;;;;;-1.49;92.45;95758.28;10394154;28;20192;-57
2022/04/02 07:38:38;;;;;;;6.33;3.57;;;;;;;-1.45;93.58;95767.41;10442072;22;20282;-57
2022/04/02 07:43:59;;;;;;;5.07;3.37;;;;;;;-1.18;92.17;95769.81;10411286;28;20188;-53
2022/04/02 07:49:02;;;;;;;7.10;3.27;;;;;;;-1.02;89.97;95753.31;10392262;28;20220;-51
2022/04/02 07:54:06;;;;;;;6.77;3.60;;;;;;;-0.93;87.84;95732.09;10390921;28;20259;-53
2022/04/02 07:59:11;;;;;;;6.10;3.10;;;;;;;-0.46;87.31;95732.13;10414945;28;20601;-59
2022/04/02 08:04:16;;;;;;;11.30;5.00;;;;;;;-0.73;86.95;95743.53;10390933;28;20192;-54
2022/04/02 08:09:18;;;;;;;10.67;5.53;;;;;;;-0.91;88.97;95766.22;10392313;28;20213;-54
2022/04/02 08:14:18;;;;;;;7.23;3.23;;;;;;;-0.32;86.85;95754.28;10409533;28;20231;-59
2022/04/02 08:19:21;;;;;;;5.47;2.87;;;;;;;-0.46;86.01;95747.56;10409704;28;20767;-59
2022/04/02 08:24:22;;;;;;;8.27;3.10;;;;;;;-0.17;85.62;95760.03;10408478;28;20188;-59
2022/04/02 08:29:51;;;;;;;5.30;3.00;;;;;;;-0.07;82.18;95717.25;10409775;28;20216;-60
2022/04/02 08:35:11;;;;;;;9.53;5.70;;;;;;;0.59;80.46;95701.88;10391938;28;20195;-55
2022/04/02 08:40:23;;;;;;;4.37;3.17;;;;;;;0.30;79.99;95715.25;10409400;28;20250;-56
2022/04/02 08:45:32;;;;;;;6.00;2.90;;;;;;;-0.14;79.82;95726.34;10405398;28;20219;-55
2022/04/02 08:50:36;;;;;;;4.40;2.90;;;;;;;-0.11;79.97;95734.66;10381666;28;20228;-54
2022/04/02 08:55:37;;;;;;;4.90;2.90;;;;;;;0.64;78.49;95711.81;10390933;28;20251;-60
2022/04/02 09:00:44;;;;;;;4.83;3.00;;;;;;;0.31;76.74;95692.91;10408692;28;20239;-61
2022/04/02 09:06:12;;;;;;;4.40;2.70;;;;;;;1.02;73.95;95664.94;10416235;28;20654;-59
2022/04/02 09:11:22;;;;;;;4.07;2.27;;;;;;;0.72;71.18;95596.06;10376731;28;20566;-59
2022/04/02 09:16:36;;;;;;;6.07;2.27;;;;;;;1.15;73.14;95662.22;10383666;28;20726;-57
2022/04/02 09:21:54;;;;;;;4.13;3.07;;;;;;;1.53;71.12;95626.47;10380245;28;20191;-56
2022/04/02 09:27:26;;;;;;;13.00;5.93;;;;;;;1.61;70.50;95631.81;10398219;28;20274;-58
2022/04/02 09:32:46;;;;;;;5.00;3.37;;;;;;;1.86;68.96;95599.56;10398870;28;20204;-57
2022/04/02 09:38:13;;;;;;;5.57;3.27;;;;;;;1.78;69.72;95633.78;10364979;28;20232;-54
2022/04/02 09:43:37;;;;;;;6.30;3.33;;;;;;;1.43;68.50;95621.25;10416477;28;20200;-55
2022/04/02 09:49:08;;;;;;;4.17;2.57;;;;;;;1.51;68.22;95620.63;10415285;28;20639;-56
2022/04/02 09:54:36;;;;;;;7.27;3.37;;;;;;;2.31;67.24;95621.59;10397608;28;20196;-55
2022/04/02 10:00:02;;;;;;;3.77;2.47;;;;;;;2.10;67.39;95606.19;10414441;28;20228;-53
2022/04/02 10:05:15;;;;;;;6.73;3.10;;;;;;;1.97;68.03;95634.81;10413329;28;20207;-57
2022/04/02 10:10:18;;;;;;;3.30;2.70;;;;;;;2.46;67.79;95630.59;10415808;28;20208;-57
2022/04/02 10:15:19;;;;;;;5.37;2.80;;;;;;;2.87;66.79;95614.22;10397574;28;20731;-58
2022/04/02 10:20:23;;;;;;;4.57;2.70;;;;;;;3.40;65.00;95603.41;10416120;28;20289;-55
2022/04/02 10:25:27;;;;;;;3.47;2.40;;;;;;;3.49;64.23;95586.19;10415772;28;20258;-53
2022/04/02 10:30:28;;;;;;;4.20;2.30;;;;;;;4.27;62.77;95578.09;10398104;28;20212;-56
2022/04/02 10:35:29;;;;;;;5.67;2.40;;;;;;;4.78;59.04;95500.63;10397772;28;20212;-58
2022/04/02 10:40:30;;;;;;;4.47;2.60;;;;;;;3.69;61.53;95550.69;10414046;28;20698;-51
2022/04/02 10:45:35;;;;;;;5.63;2.03;;;;;;;4.23;59.81;95517.94;10414936;28;20184;-58
2022/04/02 10:50:37;;;;;;;3.93;2.70;;;;;;;4.14;60.32;95542.16;10414345;28;20213;-55
2022/04/02 10:55:46;;;;;;;6.73;2.80;;;;;;;4.75;59.30;95532.06;10414727;28;20645;-57
2022/04/02 11:00:47;;;;;;;4.37;2.97;;;;;;;4.07;61.44;95579.97;10414047;28;20200;-59
2022/04/02 11:05:47;;;;;;;5.63;3.33;;;;;;;4.24;59.85;95539.50;10409012;28;20238;-57
2022/04/02 11:10:48;;;;;;;2.87;2.30;;;;;;;3.90;61.23;95569.41;10390347;28;20203;-55
2022/04/02 11:15:48;;;;;;;9.20;4.10;;;;;;;4.34;58.63;95519.53;10404757;28;20212;-55
2022/04/02 11:20:50;;;;;;;5.90;3.60;;;;;;;5.09;56.59;95495.78;10406292;28;20219;-55
2022/04/02 11:25:54;;;;;;;15.80;4.50;;;;;;;5.52;53.78;95433.53;10405889;28;20243;-57
2022/04/02 11:31:05;;;;;;;5.87;3.40;;;;;;;5.31;56.39;95510.06;10406316;28;20184;-57
2022/04/02 11:36:14;;;;;;;11.03;6.67;;;;;;;5.72;54.44;95473.88;10405923;28;20244;-59
2022/04/02 11:41:21;;;;;;;3.10;2.17;;;;;;;6.17;51.18;95377.47;10407176;28;20200;-57
2022/04/02 11:46:22;;;;;;;4.23;3.00;;;;;;;5.34;50.25;95359.13;10409043;28;20232;-56
2022/04/02 11:51:26;;;;;;;9.30;2.63;;;;;;;5.75;51.34;95407.78;10408686;28;20690;-57
2022/04/02 11:56:33;;;;;;;6.10;2.43;;;;;;;6.24;52.07;95439.09;10408363;28;20740;-55
2022/04/02 12:01:44;;;;;;;3.40;2.50;;;;;;;6.09;49.42;95370.50;10408213;28;20203;-56
2022/04/02 12:06:52;;;;;;;4.17;2.20;;;;;;;6.11;48.52;95352.97;10408366;28;20678;-54
2022/04/02 12:12:03;;;;;;;9.93;4.63;;;;;;;6.07;49.26;95375.84;10408479;28;20745;-56
2022/04/02 12:17:09;;;;;;;5.83;3.50;;;;;;;6.42;49.61;95392.13;10394502;28;20216;-56
2022/04/02 12:22:21;;;;;;;3.53;2.47;;;;;;;7.00;47.85;95366.00;10410508;28;20300;-57
2022/04/02 12:27:24;;;;;;;3.33;1.80;;;;;;;6.14;47.63;95360.44;10410732;28;20212;-57
2022/04/02 12:32:35;;;;;;;2.20;2.00;;;;;;;7.08;47.72;95359.97;10410383;28;20193;-57
2022/04/02 12:37:48;;;;;;;2.87;1.70;;;;;;;6.55;45.35;95281.53;10409994;28;20229;-51
2022/04/02 12:42:51;;;;;;;4.87;2.30;;;;;;;6.75;46.46;95344.41;10410779;28;20185;-57
2022/04/02 12:48:02;;;;;;;3.67;2.17;;;;;;;8.01;44.99;95340.09;10411206;28;20323;-57
2022/04/02 12:53:03;;;;;;;4.30;2.70;;;;;;;6.86;44.50;95276.41;10410739;28;20189;-57
2022/04/02 12:58:10;;;;;;;4.80;2.30;;;;;;;5.95;46.38;95327.72;10410615;28;20235;-54
2022/04/02 13:03:27;;;;;;;3.73;2.00;;;;;;;6.10;46.65;95350.53;10410141;28;20200;-51
2022/04/02 13:08:28;;;;;;;4.07;2.00;;;;;;;5.78;48.72;95404.06;10392986;28;20686;-52
2022/04/02 13:13:40;;;;;;;3.00;2.17;;;;;;;5.89;48.24;95411.53;10410137;28;20193;-53
2022/04/02 13:24:28;;;;;;;6.77;2.50;;;;;;;5.86;48.82;95423.06;10410207;28;20279;-57
2022/04/02 13:29:54;;;;;;;11.83;6.57;;;;;;;6.24;48.60;95436.47;10410436;28;20236;-57
2022/04/02 13:35:39;;;;;;;4.20;3.20;;;;;;;5.94;48.72;95444.84;10409959;28;20231;-56
2022/04/02 13:40:45;;;;;;;4.17;2.50;;;;;;;6.24;47.62;95425.28;10409413;28;20243;-58
2022/04/02 13:45:46;;;;;;;3.63;2.30;;;;;;;6.11;47.08;95401.53;10409985;28;20211;-51
2022/04/02 13:51:10;;;;;;;4.80;2.90;;;;;;;5.17;49.01;95427.53;10395417;28;20188;-57
2022/04/02 13:56:15;;;;;;;3.83;2.10;;;;;;;5.01;49.25;95433.47;10406685;28;20939;-55
2022/04/02 14:01:19;;;;;;;4.07;2.30;;;;;;;5.38;48.64;95445.31;10416960;28;20263;-52
2022/04/02 14:06:22;;;;;;;5.60;3.00;;;;;;;5.45;50.09;95480.09;10416533;28;20578;-54
2022/04/02 14:11:23;;;;;;;4.60;2.83;;;;;;;4.63;49.46;95423.31;10416523;28;20204;-55
2022/04/02 14:16:29;;;;;;;18.23;8.07;;;;;;;4.58;51.58;95505.97;10416172;28;20269;-54
2022/04/02 14:21:31;;;;;;;7.67;3.40;;;;;;;5.47;49.72;95469.56;10398798;28;20185;-53
2022/04/02 14:26:59;;;;;;;5.13;3.07;;;;;;;5.40;50.68;95502.31;10416056;28;20228;-51
2022/04/02 14:32:52;;;;;;;4.40;3.00;;;;;;;5.82;48.77;95457.31;10398223;28;20266;-53
2022/04/02 14:38:03;;;;;;;5.50;2.60;;;;;;;5.61;50.33;95501.94;10415390;28;20224;-51
2022/04/02 14:43:36;;;;;;;4.47;2.53;;;;;;;5.58;51.22;95502.25;10415491;28;20196;-54
2022/04/02 14:49:27;;;;;;;8.80;3.13;;;;;;;5.13;50.47;95484.16;10371053;28;20231;-52
2022/04/02 14:54:52;;;;;;;6.30;2.53;;;;;;;4.97;51.00;95497.81;10248495;29;20234;-55
2022/04/02 15:00:16;;;;;;;6.33;2.80;;;;;;;4.70;52.34;95540.28;10389401;28;20232;-53
2022/04/02 15:05:39;;;;;;;3.90;2.53;;;;;;;4.69;51.60;95512.69;10397518;28;20196;-50
2022/04/02 15:10:46;;;;;;;3.63;2.70;;;;;;;4.96;52.24;95542.09;10396260;28;20192;-51
2022/04/02 15:15:47;;;;;;;4.30;2.77;;;;;;;4.70;51.75;95518.69;10414309;28;20227;-53
2022/04/02 15:21:03;;;;;;;5.47;3.07;;;;;;;4.42;52.72;95542.91;10413909;28;20564;-50
2022/04/02 15:26:15;;;;;;;3.70;2.33;;;;;;;4.07;53.38;95567.00;10413796;28;20212;-52
2022/04/02 15:31:28;;;;;;;3.00;2.20;;;;;;;4.11;53.54;95570.97;10415964;28;20192;-54
2022/04/02 15:36:29;;;;;;;8.20;2.67;;;;;;;4.15;52.63;95555.94;10397417;28;20225;-55
2022/04/02 15:41:49;;;;;;;4.40;2.50;;;;;;;4.26;52.69;95558.34;10410263;28;20201;-51
2022/04/02 15:46:50;;;;;;;3.00;2.60;;;;;;;4.06;54.54;95623.22;10410724;28;20200;-54
2022/04/02 15:51:50;;;;;;;5.33;2.90;;;;;;;4.09;53.57;95594.44;10410664;28;20193;-55
2022/04/02 15:57:07;;;;;;;4.43;2.20;;;;;;;3.64;53.92;95599.50;10409468;28;20209;-55
2022/04/02 16:02:36;;;;;;;8.57;4.60;;;;;;;3.43;56.97;95704.09;10408632;28;20438;-50
2022/04/02 16:07:37;;;;;;;6.63;2.90;;;;;;;3.54;58.24;95729.81;10412037;28;20220;-52
2022/04/02 16:12:39;;;;;;;5.20;3.40;;;;;;;3.37;57.00;95697.69;10410211;28;20275;-55
2022/04/02 16:18:11;;;;;;;8.40;3.50;;;;;;;3.27;57.18;95703.81;10411433;28;20221;-53
2022/04/02 16:23:13;;;;;;;10.57;3.33;;;;;;;2.93;58.22;95735.25;10411682;28;20266;-55
2022/04/02 16:28:14;;;;;;;6.57;3.10;;;;;;;2.74;59.33;95746.34;10411655;28;20220;-55
2022/04/02 16:33:14;;;;;;;4.17;2.57;;;;;;;2.79;59.19;95752.75;10411280;28;20196;-57
2022/04/02 16:38:15;;;;;;;5.07;2.77;;;;;;;2.77;59.92;95793.47;10410988;28;20303;-54
2022/04/02 16:43:15;;;;;;;7.47;4.53;;;;;;;2.55;61.11;95835.00;10410755;28;20800;-57
2022/04/02 16:48:15;;;;;;;10.53;3.23;;;;;;;2.45;61.37;95829.78;10410714;28;20219;-51
2022/04/02 16:53:25;;;;;;;5.77;2.93;;;;;;;2.22;61.89;95844.59;10409994;28;20209;-56
2022/04/02 16:58:25;;;;;;;4.87;3.47;;;;;;;2.08;63.23;95877.59;10410617;28;20284;-52
2022/04/02 17:03:28;;;;;;;5.13;3.00;;;;;;;1.80;63.54;95870.41;10410490;28;20701;-55
2022/04/02 17:08:29;;;;;;;6.53;3.57;;;;;;;1.73;64.32;95909.63;10410512;28;20215;-52
2022/04/02 17:13:29;;;;;;;23.47;11.10;;;;;;;1.63;65.18;95931.94;10407670;28;20192;-52
2022/04/02 17:18:31;;;;;;;4.47;3.43;;;;;;;1.53;64.83;95937.03;10408905;28;20212;-54
2022/04/02 17:23:32;;;;;;;7.60;3.20;;;;;;;1.56;65.63;95954.84;10409877;28;20208;-51
2022/04/02 17:28:41;;;;;;;7.00;3.90;;;;;;;1.38;67.31;95982.91;10414841;28;20265;-51
2022/04/02 17:33:44;;;;;;;4.93;2.90;;;;;;;1.26;67.34;95996.75;10414842;28;20197;-53
2022/04/02 17:38:50;;;;;;;7.27;3.60;;;;;;;1.16;68.25;96017.22;10396827;28;20322;-49
2022/04/02 17:43:51;;;;;;;4.90;3.13;;;;;;;1.12;68.30;96027.91;10416602;28;20181;-53
2022/04/02 17:49:00;;;;;;;8.20;3.40;;;;;;;1.03;69.33;96045.72;10416882;28;20724;-54
2022/04/02 17:54:00;;;;;;;5.73;3.30;;;;;;;0.91;69.67;96053.53;10417274;28;20207;-51
2022/04/02 17:59:07;;;;;;;7.00;3.57;;;;;;;0.83;70.06;96070.41;10416527;28;20234;-51
2022/04/02 18:04:13;;;;;;;6.60;3.60;;;;;;;0.75;70.16;96077.88;10416164;28;20200;-51
2022/04/02 18:09:13;;;;;;;7.07;3.37;;;;;;;0.73;70.15;96076.34;10416378;28;20243;-52
2022/04/02 18:14:15;;;;;;;4.97;3.10;;;;;;;0.62;71.48;96114.00;10415183;28;20257;-53
2022/04/02 18:19:16;;;;;;;7.53;3.13;;;;;;;0.56;72.05;96139.41;10415819;28;20611;-53
2022/04/02 18:24:17;;;;;;;5.97;3.40;;;;;;;0.54;70.50;96103.44;10415230;28;20203;-55
2022/04/02 18:29:17;;;;;;;9.23;3.27;;;;;;;0.60;70.59;96113.31;10415496;28;20208;-56
2022/04/02 18:34:17;;;;;;;3.97;2.50;;;;;;;0.44;70.43;96102.44;10414540;28;20189;-53
2022/04/02 18:39:18;;;;;;;7.43;2.80;;;;;;;0.39;70.93;96118.22;10413979;28;20606;-56
2022/04/02 18:44:18;;;;;;;4.97;2.43;;;;;;;0.37;69.66;96093.50;10414575;28;20268;-55
2022/04/02 18:49:20;;;;;;;6.13;2.90;;;;;;;0.33;69.48;96096.28;10414194;28;20212;-53
2022/04/02 18:54:21;;;;;;;5.30;3.67;;;;;;;0.28;70.25;96123.31;10414568;28;20673;-53
2022/04/02 18:59:21;;;;;;;7.83;3.17;;;;;;;0.26;70.76;96135.47;10414032;28;20223;-57
2022/04/02 19:04:22;;;;;;;4.07;2.80;;;;;;;0.19;71.46;96155.69;10413766;28;20606;-56
2022/04/02 19:09:22;;;;;;;10.83;2.77;;;;;;;0.15;72.39;96182.56;10413669;28;20589;-57
2022/04/02 19:14:22;;;;;;;5.43;2.70;;;;;;;0.01;73.30;96204.13;10412950;28;20231;-52
2022/04/02 19:19:24;;;;;;;5.60;2.97;;;;;;;-0.09;74.02;96224.53;10413286;28;20225;-51
2022/04/02 19:24:24;;;;;;;6.67;3.37;;;;;;;-0.16;74.98;96254.16;10413074;28;20196;-52
2022/04/02 19:29:25;;;;;;;6.50;3.77;;;;;;;-0.30;75.95;96272.28;10412888;28;20228;-53
2022/04/02 19:34:25;;;;;;;6.50;3.17;;;;;;;-0.36;76.88;96279.47;10412750;28;20192;-51
2022/04/02 19:39:26;;;;;;;5.47;2.90;;;;;;;-0.41;77.39;96288.41;10412149;28;20255;-53
2022/04/02 19:44:26;;;;;;;4.20;3.30;;;;;;;-0.31;77.51;96286.06;10442592;22;20330;-59
2022/04/02 19:49:28;;;;;;;6.43;3.27;;;;;;;-0.42;78.32;96292.72;10398728;28;20181;-57
2022/04/02 19:54:30;;;;;;;5.53;3.73;;;;;;;-0.44;78.49;96299.72;10388669;28;20216;-58
2022/04/02 19:59:31;;;;;;;8.67;3.60;;;;;;;-0.44;78.28;96301.47;10408155;28;20707;-55
2022/04/02 20:04:31;;;;;;;6.53;3.47;;;;;;;-0.41;78.44;96299.53;10411523;28;20693;-57
2022/04/02 20:09:32;;;;;;;6.30;4.40;;;;;;;-0.44;79.80;96317.75;10411388;28;20275;-58
2022/04/02 20:14:34;;;;;;;6.40;3.50;;;;;;;-0.46;80.23;96324.75;10410856;28;20212;-59
2022/04/02 20:19:34;;;;;;;5.40;3.13;;;;;;;-0.48;81.22;96334.28;10411237;28;20581;-59
2022/04/02 20:24:35;;;;;;;6.80;3.50;;;;;;;-0.48;81.79;96346.34;10410986;28;20216;-58
2022/04/02 20:29:35;;;;;;;8.10;3.77;;;;;;;-0.51;81.91;96342.19;10411006;28;20188;-56
2022/04/02 20:34:35;;;;;;;4.83;2.93;;;;;;;-0.63;83.97;96358.41;10410515;28;20687;-56
2022/04/02 20:39:37;;;;;;;8.13;3.30;;;;;;;-0.55;83.35;96344.16;10410673;28;20689;-58
2022/04/02 20:44:38;;;;;;;4.90;2.80;;;;;;;-0.61;84.20;96346.31;10410339;28;20240;-58
2022/04/02 20:49:39;;;;;;;6.53;2.83;;;;;;;-0.63;84.79;96353.25;10410482;28;20192;-54
2022/04/02 20:54:39;;;;;;;6.13;2.90;;;;;;;-0.67;85.46;96346.66;10410179;28;20216;-57
2022/04/02 20:59:39;;;;;;;7.13;3.23;;;;;;;-0.87;85.38;96353.03;10413728;28;20222;-55
2022/04/02 21:04:40;;;;;;;4.80;2.93;;;;;;;-0.80;86.84;96364.59;10418157;28;20714;-59
2022/04/02 21:09:40;;;;;;;6.63;3.53;;;;;;;-0.84;86.43;96368.28;10418371;28;20680;-55
2022/04/02 21:14:41;;;;;;;6.67;3.30;;;;;;;-0.90;86.46;96364.34;10417925;28;20770;-56
2022/04/02 21:19:41;;;;;;;5.80;3.00;;;;;;;-0.89;87.60;96378.84;10417833;28;20274;-59
2022/04/02 21:24:42;;;;;;;12.80;3.30;;;;;;;-0.82;86.76;96371.59;10418084;28;20216;-54
2022/04/02 21:29:42;;;;;;;6.77;3.20;;;;;;;-0.95;87.99;96389.50;10417778;28;20203;-56
2022/04/02 21:34:42;;;;;;;5.40;3.13;;;;;;;-0.90;88.71;96393.47;10417637;28;20244;-55
2022/04/02 21:39:43;;;;;;;9.13;3.27;;;;;;;-0.94;89.03;96386.03;10417350;28;20228;-56
2022/04/02 21:44:43;;;;;;;11.77;3.50;;;;;;;-0.98;89.55;96389.69;10416987;28;20240;-58
2022/04/02 21:49:44;;;;;;;11.73;3.53;;;;;;;-1.05;89.20;96391.00;10417521;28;20176;-56
2022/04/02 21:54:44;;;;;;;6.87;3.20;;;;;;;-1.10;89.19;96397.25;10416672;28;20248;-56
2022/04/02 21:59:44;;;;;;;5.43;3.40;;;;;;;-1.14;90.95;96415.50;10417117;28;20220;-58
2022/04/02 22:04:46;;;;;;;7.27;3.67;;;;;;;-1.11;90.83;96413.56;10414319;28;20246;-56
2022/04/02 22:09:46;;;;;;;8.97;3.60;;;;;;;-1.22;91.15;96422.88;10413377;28;20255;-55
2022/04/02 22:14:47;;;;;;;8.20;3.00;;;;;;;-1.24;90.50;96401.56;10414360;28;20247;-53
2022/04/02 22:19:47;;;;;;;4.30;3.20;;;;;;;-1.32;89.88;96409.72;10414052;28;20221;-53
2022/04/02 22:24:47;;;;;;;6.43;3.40;;;;;;;-1.20;89.35;96411.56;10414528;28;20263;-57
2022/04/02 22:29:48;;;;;;;5.40;2.90;;;;;;;-1.25;89.50;96416.16;10413694;28;20183;-53
2022/04/02 22:34:48;;;;;;;5.70;2.97;;;;;;;-1.22;89.05;96415.97;10413443;28;20507;-53
2022/04/02 22:39:48;;;;;;;6.20;3.17;;;;;;;-1.36;89.02;96423.66;10413317;28;21070;-53
2022/04/02 22:44:49;;;;;;;5.40;2.90;;;;;;;-1.39;89.17;96411.81;10412985;28;20616;-52
2022/04/02 22:49:50;;;;;;;6.67;3.33;;;;;;;-1.35;88.53;96415.84;10412944;28;20193;-54
2022/04/02 22:54:50;;;;;;;7.03;3.30;;;;;;;-1.43;88.55;96412.91;10412529;28;20220;-53
2022/04/02 22:59:54;;;;;;;4.70;3.10;;;;;;;-1.44;89.11;96424.09;10412724;28;20216;-53
2022/04/02 23:04:54;;;;;;;7.17;3.40;;;;;;;-1.52;88.53;96421.16;10412693;28;20227;-54
2022/04/02 23:09:55;;;;;;;5.53;2.83;;;;;;;-1.49;88.57;96423.56;10412466;28;20655;-53
2022/04/02 23:14:55;;;;;;;7.77;3.47;;;;;;;-1.52;89.32;96432.25;10412377;28;20216;-54
2022/04/02 23:19:55;;;;;;;5.63;2.50;;;;;;;-1.55;87.63;96413.63;10412403;28;20220;-54
2022/04/02 23:24:56;;;;;;;7.83;3.00;;;;;;;-1.65;87.99;96419.31;10412242;28;20243;-56
2022/04/02 23:29:57;;;;;;;5.47;3.20;;;;;;;-1.56;87.51;96429.94;10412399;28;20193;-54
2022/04/02 23:34:57;;;;;;;3.70;2.60;;;;;;;-1.67;89.04;96439.13;10411943;28;20231;-54
2022/04/02 23:39:57;;;;;;;7.23;2.73;;;;;;;-1.70;88.94;96435.88;10411094;28;20277;-53
2022/04/02 23:44:58;;;;;;;6.10;2.73;;;;;;;-1.70;88.09;96434.16;10410886;28;20232;-54
2022/04/02 23:49:58;;;;;;;3.53;2.67;;;;;;;-1.74;89.15;96439.56;10410687;28;20196;-53